sensor_id;sensor_type;location;lat;lon;timestamp;P1;durP1;ratioP1;P2;durP2;ratioP2
9422;SDS011;4750;49.506;10.400;2022-09-16T00:02:28;4.23;;;2.70;;
9422;SDS011;4750;49.506;10.400;2022-09-16T00:05:12;3.47;;;3.00;;
9422;SDS011;4750;49.506;10.400;2022-09-16T00:07:56;6.40;;;3.67;;
9422;SDS011;4750;49.506;10.400;2022-09-16T00:10:40;4.50;;;3.57;;
9422;SDS011;4750;49.506;10.400;2022-09-16T00:13:26;4.50;;;3.27;;
9422;SDS011;4750;49.506;10.400;2022-09-16T00:16:15;5.10;;;3.67;;
9422;SDS011;4750;49.506;10.400;2022-09-16T00:19:02;6.40;;;3.77;;
9422;SDS011;4750;49.506;10.400;2022-09-16T00:21:46;5.03;;;3.70;;
9422;SDS011;4750;49.506;10.400;2022-09-16T00:24:31;5.57;;;4.23;;
9422;SDS011;4750;49.506;10.400;2022-09-16T00:27:15;4.97;;;4.40;;
9422;SDS011;4750;49.506;10.400;2022-09-16T00:30:00;8.03;;;4.20;;
9422;SDS011;4750;49.506;10.400;2022-09-16T00:32:44;5.23;;;4.10;;
9422;SDS011;4750;49.506;10.400;2022-09-16T00:35:28;5.40;;;4.50;;
9422;SDS011;4750;49.506;10.400;2022-09-16T00:38:12;6.83;;;5.10;;
9422;SDS011;4750;49.506;10.400;2022-09-16T00:40:56;5.30;;;4.77;;
9422;SDS011;4750;49.506;10.400;2022-09-16T00:46:45;6.40;;;5.77;;
9422;SDS011;4750;49.506;10.400;2022-09-16T00:49:30;6.63;;;5.47;;
9422;SDS011;4750;49.506;10.400;2022-09-16T00:52:15;5.43;;;4.77;;
9422;SDS011;4750;49.506;10.400;2022-09-16T00:55:00;8.03;;;5.27;;
9422;SDS011;4750;49.506;10.400;2022-09-16T00:57:49;6.97;;;4.50;;
9422;SDS011;4750;49.506;10.400;2022-09-16T01:00:34;7.37;;;4.67;;
9422;SDS011;4750;49.506;10.400;2022-09-16T01:03:18;5.63;;;4.60;;
9422;SDS011;4750;49.506;10.400;2022-09-16T01:06:03;5.93;;;4.20;;
9422;SDS011;4750;49.506;10.400;2022-09-16T01:08:48;6.57;;;4.53;;
9422;SDS011;4750;49.506;10.400;2022-09-16T01:11:33;5.30;;;4.80;;
9422;SDS011;4750;49.506;10.400;2022-09-16T01:14:17;4.43;;;4.07;;
9422;SDS011;4750;49.506;10.400;2022-09-16T01:44:42;7.33;;;5.83;;
9422;SDS011;4750;49.506;10.400;2022-09-16T01:47:53;5.93;;;4.80;;
9422;SDS011;4750;49.506;10.400;2022-09-16T01:50:45;5.87;;;4.90;;
9422;SDS011;4750;49.506;10.400;2022-09-16T01:56:39;6.20;;;4.67;;
9422;SDS011;4750;49.506;10.400;2022-09-16T01:59:42;7.27;;;4.83;;
9422;SDS011;4750;49.506;10.400;2022-09-16T02:02:35;7.13;;;4.87;;
9422;SDS011;4750;49.506;10.400;2022-09-16T02:05:26;7.23;;;4.83;;
9422;SDS011;4750;49.506;10.400;2022-09-16T02:08:23;6.43;;;4.80;;
9422;SDS011;4750;49.506;10.400;2022-09-16T02:11:14;5.57;;;4.77;;
9422;SDS011;4750;49.506;10.400;2022-09-16T02:14:21;7.13;;;4.97;;
9422;SDS011;4750;49.506;10.400;2022-09-16T02:17:13;6.07;;;5.10;;
9422;SDS011;4750;49.506;10.400;2022-09-16T02:20:02;6.47;;;5.50;;
9422;SDS011;4750;49.506;10.400;2022-09-16T02:22:51;6.90;;;5.23;;
9422;SDS011;4750;49.506;10.400;2022-09-16T02:25:41;10.13;;;4.90;;
9422;SDS011;4750;49.506;10.400;2022-09-16T02:28:29;5.77;;;4.60;;
9422;SDS011;4750;49.506;10.400;2022-09-16T02:31:16;6.83;;;5.07;;
9422;SDS011;4750;49.506;10.400;2022-09-16T02:34:06;9.13;;;5.47;;
9422;SDS011;4750;49.506;10.400;2022-09-16T02:36:58;5.63;;;4.73;;
9422;SDS011;4750;49.506;10.400;2022-09-16T02:39:49;6.33;;;4.50;;
9422;SDS011;4750;49.506;10.400;2022-09-16T02:42:40;6.23;;;4.60;;
9422;SDS011;4750;49.506;10.400;2022-09-16T02:45:25;6.17;;;4.30;;
9422;SDS011;4750;49.506;10.400;2022-09-16T02:51:42;8.80;;;4.63;;
9422;SDS011;4750;49.506;10.400;2022-09-16T02:54:44;4.67;;;4.03;;
9422;SDS011;4750;49.506;10.400;2022-09-16T02:57:34;8.73;;;4.77;;
9422;SDS011;4750;49.506;10.400;2022-09-16T03:00:18;5.73;;;4.07;;
9422;SDS011;4750;49.506;10.400;2022-09-16T03:03:03;5.40;;;3.50;;
9422;SDS011;4750;49.506;10.400;2022-09-16T03:08:46;7.30;;;3.23;;
9422;SDS011;4750;49.506;10.400;2022-09-16T03:14:45;6.63;;;4.27;;
9422;SDS011;4750;49.506;10.400;2022-09-16T03:23:58;7.30;;;3.67;;
9422;SDS011;4750;49.506;10.400;2022-09-16T03:26:51;5.23;;;3.37;;
9422;SDS011;4750;49.506;10.400;2022-09-16T03:29:48;5.30;;;3.50;;
9422;SDS011;4750;49.506;10.400;2022-09-16T03:32:55;4.00;;;3.60;;
9422;SDS011;4750;49.506;10.400;2022-09-16T03:35:44;5.93;;;3.70;;
9422;SDS011;4750;49.506;10.400;2022-09-16T03:38:31;5.60;;;3.70;;
9422;SDS011;4750;49.506;10.400;2022-09-16T03:41:17;3.97;;;3.13;;
9422;SDS011;4750;49.506;10.400;2022-09-16T03:44:02;5.03;;;3.27;;
9422;SDS011;4750;49.506;10.400;2022-09-16T03:46:46;7.43;;;3.20;;
9422;SDS011;4750;49.506;10.400;2022-09-16T03:49:30;5.60;;;3.50;;
9422;SDS011;4750;49.506;10.400;2022-09-16T03:52:14;6.33;;;3.30;;
9422;SDS011;4750;49.506;10.400;2022-09-16T03:55:00;6.17;;;3.23;;
9422;SDS011;4750;49.506;10.400;2022-09-16T03:57:44;5.43;;;3.10;;
9422;SDS011;4750;49.506;10.400;2022-09-16T04:00:28;5.03;;;3.03;;
9422;SDS011;4750;49.506;10.400;2022-09-16T04:03:13;5.73;;;2.87;;
9422;SDS011;4750;49.506;10.400;2022-09-16T04:05:57;4.93;;;2.90;;
9422;SDS011;4750;49.506;10.400;2022-09-16T04:08:41;4.93;;;2.67;;
9422;SDS011;4750;49.506;10.400;2022-09-16T04:11:27;4.97;;;3.00;;
9422;SDS011;4750;49.506;10.400;2022-09-16T04:14:12;3.23;;;2.40;;
9422;SDS011;4750;49.506;10.400;2022-09-16T04:16:56;5.47;;;2.67;;
9422;SDS011;4750;49.506;10.400;2022-09-16T04:19:40;5.10;;;2.53;;
9422;SDS011;4750;49.506;10.400;2022-09-16T04:22:26;4.37;;;3.23;;
9422;SDS011;4750;49.506;10.400;2022-09-16T04:25:12;6.30;;;2.80;;
9422;SDS011;4750;49.506;10.400;2022-09-16T04:27:56;4.80;;;2.83;;
9422;SDS011;4750;49.506;10.400;2022-09-16T04:30:40;2.80;;;2.40;;
9422;SDS011;4750;49.506;10.400;2022-09-16T04:33:26;3.60;;;2.53;;
9422;SDS011;4750;49.506;10.400;2022-09-16T04:36:17;3.77;;;2.33;;
9422;SDS011;4750;49.506;10.400;2022-09-16T04:39:02;4.53;;;2.40;;
9422;SDS011;4750;49.506;10.400;2022-09-16T04:41:46;4.77;;;2.67;;
9422;SDS011;4750;49.506;10.400;2022-09-16T04:44:30;3.93;;;2.80;;
9422;SDS011;4750;49.506;10.400;2022-09-16T04:47:14;4.60;;;2.80;;
9422;SDS011;4750;49.506;10.400;2022-09-16T04:49:58;6.57;;;2.40;;
9422;SDS011;4750;49.506;10.400;2022-09-16T04:52:42;2.10;;;1.80;;
9422;SDS011;4750;49.506;10.400;2022-09-16T04:55:25;6.43;;;3.10;;
9422;SDS011;4750;49.506;10.400;2022-09-16T04:58:10;3.57;;;2.43;;
9422;SDS011;4750;49.506;10.400;2022-09-16T05:00:54;3.73;;;2.60;;
9422;SDS011;4750;49.506;10.400;2022-09-16T05:03:42;4.27;;;2.63;;
9422;SDS011;4750;49.506;10.400;2022-09-16T05:06:30;7.03;;;4.97;;
9422;SDS011;4750;49.506;10.400;2022-09-16T05:09:16;4.70;;;3.37;;
9422;SDS011;4750;49.506;10.400;2022-09-16T05:12:00;6.80;;;3.20;;
9422;SDS011;4750;49.506;10.400;2022-09-16T05:14:44;3.60;;;2.70;;
9422;SDS011;4750;49.506;10.400;2022-09-16T05:17:28;3.43;;;2.40;;
9422;SDS011;4750;49.506;10.400;2022-09-16T05:20:13;2.83;;;2.00;;
9422;SDS011;4750;49.506;10.400;2022-09-16T05:22:58;3.60;;;1.93;;
9422;SDS011;4750;49.506;10.400;2022-09-16T05:25:42;6.37;;;2.07;;
9422;SDS011;4750;49.506;10.400;2022-09-16T05:28:26;5.67;;;2.00;;
9422;SDS011;4750;49.506;10.400;2022-09-16T05:31:14;3.40;;;2.17;;
9422;SDS011;4750;49.506;10.400;2022-09-16T05:34:03;2.80;;;2.20;;
9422;SDS011;4750;49.506;10.400;2022-09-16T05:36:57;5.40;;;2.10;;
9422;SDS011;4750;49.506;10.400;2022-09-16T05:39:43;7.00;;;2.17;;
9422;SDS011;4750;49.506;10.400;2022-09-16T05:42:27;2.43;;;1.80;;
9422;SDS011;4750;49.506;10.400;2022-09-16T05:45:11;5.57;;;2.00;;
9422;SDS011;4750;49.506;10.400;2022-09-16T05:47:55;3.60;;;2.00;;
9422;SDS011;4750;49.506;10.400;2022-09-16T05:50:39;3.33;;;1.90;;
9422;SDS011;4750;49.506;10.400;2022-09-16T05:53:25;3.23;;;1.70;;
9422;SDS011;4750;49.506;10.400;2022-09-16T05:56:12;4.47;;;2.10;;
9422;SDS011;4750;49.506;10.400;2022-09-16T05:58:58;2.20;;;1.37;;
9422;SDS011;4750;49.506;10.400;2022-09-16T06:01:43;2.90;;;1.80;;
9422;SDS011;4750;49.506;10.400;2022-09-16T06:04:27;2.93;;;1.70;;
9422;SDS011;4750;49.506;10.400;2022-09-16T06:07:11;4.17;;;1.87;;
9422;SDS011;4750;49.506;10.400;2022-09-16T06:09:55;5.63;;;1.77;;
9422;SDS011;4750;49.506;10.400;2022-09-16T06:12:39;5.93;;;2.00;;
9422;SDS011;4750;49.506;10.400;2022-09-16T06:15:23;4.47;;;1.90;;
9422;SDS011;4750;49.506;10.400;2022-09-16T06:18:07;4.53;;;1.93;;
9422;SDS011;4750;49.506;10.400;2022-09-16T06:20:51;6.20;;;1.83;;
9422;SDS011;4750;49.506;10.400;2022-09-16T06:23:36;3.87;;;1.97;;
9422;SDS011;4750;49.506;10.400;2022-09-16T06:26:22;4.07;;;1.97;;
9422;SDS011;4750;49.506;10.400;2022-09-16T06:29:08;1.80;;;1.57;;
9422;SDS011;4750;49.506;10.400;2022-09-16T06:31:53;2.97;;;1.50;;
9422;SDS011;4750;49.506;10.400;2022-09-16T06:34:37;3.43;;;1.63;;
9422;SDS011;4750;49.506;10.400;2022-09-16T06:37:21;3.53;;;1.50;;
9422;SDS011;4750;49.506;10.400;2022-09-16T06:40:05;3.40;;;1.60;;
9422;SDS011;4750;49.506;10.400;2022-09-16T06:42:51;3.33;;;1.40;;
9422;SDS011;4750;49.506;10.400;2022-09-16T06:45:36;5.10;;;1.77;;
9422;SDS011;4750;49.506;10.400;2022-09-16T06:48:20;3.93;;;1.57;;
9422;SDS011;4750;49.506;10.400;2022-09-16T06:51:05;2.97;;;1.57;;
9422;SDS011;4750;49.506;10.400;2022-09-16T06:53:52;2.90;;;1.67;;
9422;SDS011;4750;49.506;10.400;2022-09-16T06:56:39;3.33;;;1.80;;
9422;SDS011;4750;49.506;10.400;2022-09-16T06:59:24;3.13;;;1.27;;
9422;SDS011;4750;49.506;10.400;2022-09-16T07:02:10;6.80;;;1.93;;
9422;SDS011;4750;49.506;10.400;2022-09-16T07:04:55;3.27;;;1.73;;
9422;SDS011;4750;49.506;10.400;2022-09-16T07:07:40;2.73;;;1.83;;
9422;SDS011;4750;49.506;10.400;2022-09-16T07:10:23;3.63;;;1.43;;
9422;SDS011;4750;49.506;10.400;2022-09-16T07:13:07;3.97;;;1.73;;
9422;SDS011;4750;49.506;10.400;2022-09-16T07:15:52;6.97;;;1.60;;
9422;SDS011;4750;49.506;10.400;2022-09-16T07:18:36;2.67;;;1.30;;
9422;SDS011;4750;49.506;10.400;2022-09-16T07:21:23;2.70;;;1.33;;
9422;SDS011;4750;49.506;10.400;2022-09-16T07:24:12;4.53;;;2.07;;
9422;SDS011;4750;49.506;10.400;2022-09-16T07:26:56;5.33;;;1.53;;
9422;SDS011;4750;49.506;10.400;2022-09-16T07:29:40;3.23;;;1.63;;
9422;SDS011;4750;49.506;10.400;2022-09-16T07:32:26;2.90;;;1.50;;
9422;SDS011;4750;49.506;10.400;2022-09-16T07:35:10;3.63;;;1.63;;
9422;SDS011;4750;49.506;10.400;2022-09-16T07:37:54;2.97;;;1.33;;
9422;SDS011;4750;49.506;10.400;2022-09-16T07:40:38;5.07;;;1.90;;
9422;SDS011;4750;49.506;10.400;2022-09-16T07:43:24;3.70;;;1.37;;
9422;SDS011;4750;49.506;10.400;2022-09-16T07:46:08;2.73;;;1.23;;
9422;SDS011;4750;49.506;10.400;2022-09-16T07:48:54;3.17;;;1.27;;
9422;SDS011;4750;49.506;10.400;2022-09-16T07:51:38;3.03;;;1.37;;
9422;SDS011;4750;49.506;10.400;2022-09-16T07:54:22;2.53;;;1.30;;
9422;SDS011;4750;49.506;10.400;2022-09-16T07:57:07;2.20;;;1.20;;
9422;SDS011;4750;49.506;10.400;2022-09-16T07:59:51;2.87;;;1.40;;
9422;SDS011;4750;49.506;10.400;2022-09-16T08:02:35;4.67;;;1.20;;
9422;SDS011;4750;49.506;10.400;2022-09-16T08:05:19;2.37;;;1.40;;
9422;SDS011;4750;49.506;10.400;2022-09-16T08:08:03;3.43;;;1.40;;
9422;SDS011;4750;49.506;10.400;2022-09-16T08:10:54;2.53;;;1.07;;
9422;SDS011;4750;49.506;10.400;2022-09-16T08:13:39;2.37;;;1.20;;
9422;SDS011;4750;49.506;10.400;2022-09-16T08:16:24;3.80;;;1.73;;
9422;SDS011;4750;49.506;10.400;2022-09-16T08:19:08;4.83;;;1.50;;
9422;SDS011;4750;49.506;10.400;2022-09-16T08:21:52;2.93;;;1.30;;
9422;SDS011;4750;49.506;10.400;2022-09-16T08:24:36;1.73;;;0.93;;
9422;SDS011;4750;49.506;10.400;2022-09-16T08:27:21;3.90;;;1.40;;
9422;SDS011;4750;49.506;10.400;2022-09-16T08:30:04;2.33;;;1.50;;
9422;SDS011;4750;49.506;10.400;2022-09-16T08:32:58;8.30;;;1.20;;
9422;SDS011;4750;49.506;10.400;2022-09-16T08:35:42;3.57;;;1.10;;
9422;SDS011;4750;49.506;10.400;2022-09-16T08:38:28;5.47;;;1.23;;
9422;SDS011;4750;49.506;10.400;2022-09-16T08:48:06;6.40;;;1.60;;
9422;SDS011;4750;49.506;10.400;2022-09-16T08:51:03;1.23;;;1.00;;
9422;SDS011;4750;49.506;10.400;2022-09-16T08:56:53;4.70;;;1.23;;
9422;SDS011;4750;49.506;10.400;2022-09-16T08:59:42;5.13;;;1.70;;
9422;SDS011;4750;49.506;10.400;2022-09-16T09:11:42;2.60;;;1.20;;
9422;SDS011;4750;49.506;10.400;2022-09-16T09:14:40;2.03;;;1.07;;
9422;SDS011;4750;49.506;10.400;2022-09-16T09:21:08;3.27;;;1.10;;
9422;SDS011;4750;49.506;10.400;2022-09-16T09:27:29;3.00;;;1.33;;
9422;SDS011;4750;49.506;10.400;2022-09-16T09:30:22;1.40;;;1.00;;
9422;SDS011;4750;49.506;10.400;2022-09-16T09:39:27;4.10;;;1.50;;
9422;SDS011;4750;49.506;10.400;2022-09-16T09:42:42;3.23;;;1.20;;
9422;SDS011;4750;49.506;10.400;2022-09-16T09:45:35;3.47;;;1.30;;
9422;SDS011;4750;49.506;10.400;2022-09-16T09:48:25;1.90;;;1.33;;
9422;SDS011;4750;49.506;10.400;2022-09-16T09:51:32;3.60;;;1.50;;
9422;SDS011;4750;49.506;10.400;2022-09-16T10:00:16;6.63;;;1.70;;
9422;SDS011;4750;49.506;10.400;2022-09-16T10:03:13;3.23;;;1.30;;
9422;SDS011;4750;49.506;10.400;2022-09-16T10:05:59;3.77;;;1.67;;
9422;SDS011;4750;49.506;10.400;2022-09-16T10:08:44;4.20;;;1.60;;
9422;SDS011;4750;49.506;10.400;2022-09-16T10:11:30;3.70;;;1.73;;
9422;SDS011;4750;49.506;10.400;2022-09-16T10:14:21;2.97;;;1.40;;
9422;SDS011;4750;49.506;10.400;2022-09-16T10:17:16;2.50;;;1.30;;
9422;SDS011;4750;49.506;10.400;2022-09-16T10:20:02;4.20;;;1.70;;
9422;SDS011;4750;49.506;10.400;2022-09-16T10:22:53;2.13;;;1.63;;
9422;SDS011;4750;49.506;10.400;2022-09-16T10:25:41;4.97;;;2.23;;
9422;SDS011;4750;49.506;10.400;2022-09-16T10:28:26;1.87;;;1.43;;
9422;SDS011;4750;49.506;10.400;2022-09-16T10:31:10;2.43;;;1.60;;
9422;SDS011;4750;49.506;10.400;2022-09-16T10:33:55;2.87;;;1.80;;
9422;SDS011;4750;49.506;10.400;2022-09-16T10:36:40;3.63;;;1.80;;
9422;SDS011;4750;49.506;10.400;2022-09-16T10:39:24;5.50;;;1.93;;
9422;SDS011;4750;49.506;10.400;2022-09-16T10:42:17;3.33;;;1.50;;
9422;SDS011;4750;49.506;10.400;2022-09-16T10:45:09;2.30;;;1.60;;
9422;SDS011;4750;49.506;10.400;2022-09-16T10:48:00;3.50;;;1.70;;
9422;SDS011;4750;49.506;10.400;2022-09-16T10:50:55;5.43;;;1.80;;
9422;SDS011;4750;49.506;10.400;2022-09-16T10:53:43;3.00;;;1.77;;
9422;SDS011;4750;49.506;10.400;2022-09-16T10:56:44;4.80;;;1.97;;
9422;SDS011;4750;49.506;10.400;2022-09-16T10:59:30;4.37;;;1.90;;
9422;SDS011;4750;49.506;10.400;2022-09-16T11:02:22;3.57;;;1.60;;
9422;SDS011;4750;49.506;10.400;2022-09-16T11:11:39;5.07;;;1.70;;
9422;SDS011;4750;49.506;10.400;2022-09-16T11:17:51;4.23;;;1.60;;
9422;SDS011;4750;49.506;10.400;2022-09-16T11:20:59;3.37;;;1.70;;
9422;SDS011;4750;49.506;10.400;2022-09-16T11:26:58;5.03;;;2.00;;
9422;SDS011;4750;49.506;10.400;2022-09-16T11:36:15;5.43;;;2.13;;
9422;SDS011;4750;49.506;10.400;2022-09-16T11:39:15;3.40;;;1.40;;
9422;SDS011;4750;49.506;10.400;2022-09-16T11:57:43;4.27;;;1.90;;
9422;SDS011;4750;49.506;10.400;2022-09-16T12:00:31;7.23;;;1.70;;
9422;SDS011;4750;49.506;10.400;2022-09-16T12:03:21;2.67;;;1.60;;
9422;SDS011;4750;49.506;10.400;2022-09-16T12:06:20;2.97;;;1.47;;
9422;SDS011;4750;49.506;10.400;2022-09-16T12:09:18;2.57;;;1.50;;
9422;SDS011;4750;49.506;10.400;2022-09-16T12:12:14;3.90;;;1.70;;
9422;SDS011;4750;49.506;10.400;2022-09-16T12:15:06;3.10;;;1.57;;
9422;SDS011;4750;49.506;10.400;2022-09-16T12:18:21;4.57;;;1.90;;
9422;SDS011;4750;49.506;10.400;2022-09-16T12:24:16;3.63;;;1.50;;
9422;SDS011;4750;49.506;10.400;2022-09-16T12:30:27;3.50;;;1.67;;
9422;SDS011;4750;49.506;10.400;2022-09-16T12:36:11;4.70;;;2.00;;
9422;SDS011;4750;49.506;10.400;2022-09-16T12:39:00;3.73;;;2.10;;
9422;SDS011;4750;49.506;10.400;2022-09-16T12:45:02;3.30;;;1.87;;
9422;SDS011;4750;49.506;10.400;2022-09-16T12:51:12;2.47;;;1.90;;
9422;SDS011;4750;49.506;10.400;2022-09-16T13:03:18;4.33;;;2.03;;
9422;SDS011;4750;49.506;10.400;2022-09-16T13:06:18;5.53;;;1.83;;
9422;SDS011;4750;49.506;10.400;2022-09-16T13:12:02;5.30;;;2.10;;
9422;SDS011;4750;49.506;10.400;2022-09-16T13:15:08;3.07;;;1.77;;
9422;SDS011;4750;49.506;10.400;2022-09-16T13:20:57;4.00;;;1.57;;
9422;SDS011;4750;49.506;10.400;2022-09-16T13:23:45;4.30;;;1.90;;
9422;SDS011;4750;49.506;10.400;2022-09-16T13:26:41;2.70;;;1.60;;
9422;SDS011;4750;49.506;10.400;2022-09-16T13:32:23;4.40;;;2.07;;
9422;SDS011;4750;49.506;10.400;2022-09-16T13:39:03;4.37;;;1.67;;
9422;SDS011;4750;49.506;10.400;2022-09-16T13:47:30;5.73;;;1.87;;
9422;SDS011;4750;49.506;10.400;2022-09-16T13:50:17;3.07;;;1.70;;
9422;SDS011;4750;49.506;10.400;2022-09-16T13:53:09;8.03;;;1.83;;
9422;SDS011;4750;49.506;10.400;2022-09-16T14:01:57;2.23;;;1.37;;
9422;SDS011;4750;49.506;10.400;2022-09-16T14:10:48;3.60;;;1.10;;
9422;SDS011;4750;49.506;10.400;2022-09-16T14:17:03;3.63;;;0.93;;
9422;SDS011;4750;49.506;10.400;2022-09-16T14:19:57;1.97;;;0.70;;
9422;SDS011;4750;49.506;10.400;2022-09-16T14:22:43;2.03;;;1.07;;
9422;SDS011;4750;49.506;10.400;2022-09-16T14:25:31;2.60;;;1.10;;
9422;SDS011;4750;49.506;10.400;2022-09-16T14:28:19;3.27;;;0.90;;
9422;SDS011;4750;49.506;10.400;2022-09-16T14:31:14;2.00;;;1.00;;
9422;SDS011;4750;49.506;10.400;2022-09-16T14:34:02;1.17;;;0.70;;
9422;SDS011;4750;49.506;10.400;2022-09-16T14:36:51;3.00;;;1.20;;
9422;SDS011;4750;49.506;10.400;2022-09-16T14:39:36;2.97;;;1.03;;
9422;SDS011;4750;49.506;10.400;2022-09-16T14:42:23;2.90;;;1.03;;
9422;SDS011;4750;49.506;10.400;2022-09-16T14:45:12;2.03;;;1.13;;
9422;SDS011;4750;49.506;10.400;2022-09-16T14:48:00;2.60;;;0.80;;
9422;SDS011;4750;49.506;10.400;2022-09-16T14:50:49;2.40;;;1.30;;
9422;SDS011;4750;49.506;10.400;2022-09-16T14:53:34;2.23;;;1.10;;
9422;SDS011;4750;49.506;10.400;2022-09-16T14:56:19;1.23;;;0.77;;
9422;SDS011;4750;49.506;10.400;2022-09-16T14:59:03;3.13;;;0.90;;
9422;SDS011;4750;49.506;10.400;2022-09-16T15:01:47;1.07;;;0.60;;
9422;SDS011;4750;49.506;10.400;2022-09-16T15:04:32;0.97;;;0.50;;
9422;SDS011;4750;49.506;10.400;2022-09-16T15:07:22;0.50;;;0.50;;
9422;SDS011;4750;49.506;10.400;2022-09-16T15:10:17;0.93;;;0.40;;
9422;SDS011;4750;49.506;10.400;2022-09-16T15:13:09;0.87;;;0.50;;
9422;SDS011;4750;49.506;10.400;2022-09-16T15:16:01;1.10;;;0.60;;
9422;SDS011;4750;49.506;10.400;2022-09-16T15:21:38;1.63;;;0.67;;
9422;SDS011;4750;49.506;10.400;2022-09-16T15:24:28;0.80;;;0.43;;
9422;SDS011;4750;49.506;10.400;2022-09-16T15:27:20;3.57;;;1.07;;
9422;SDS011;4750;49.506;10.400;2022-09-16T15:30:22;1.87;;;0.80;;
9422;SDS011;4750;49.506;10.400;2022-09-16T15:33:21;1.50;;;0.70;;
9422;SDS011;4750;49.506;10.400;2022-09-16T15:36:30;2.13;;;0.73;;
9422;SDS011;4750;49.506;10.400;2022-09-16T15:39:26;1.50;;;0.80;;
9422;SDS011;4750;49.506;10.400;2022-09-16T15:42:16;2.87;;;0.90;;
9422;SDS011;4750;49.506;10.400;2022-09-16T15:45:03;5.37;;;1.07;;
9422;SDS011;4750;49.506;10.400;2022-09-16T15:48:01;3.13;;;0.77;;
9422;SDS011;4750;49.506;10.400;2022-09-16T15:50:50;3.77;;;1.17;;
9422;SDS011;4750;49.506;10.400;2022-09-16T15:53:41;1.20;;;0.63;;
9422;SDS011;4750;49.506;10.400;2022-09-16T15:56:32;1.60;;;0.80;;
9422;SDS011;4750;49.506;10.400;2022-09-16T16:02:33;1.27;;;0.70;;
9422;SDS011;4750;49.506;10.400;2022-09-16T16:05:23;0.60;;;0.60;;
9422;SDS011;4750;49.506;10.400;2022-09-16T16:08:10;1.20;;;0.80;;
9422;SDS011;4750;49.506;10.400;2022-09-16T16:11:24;1.83;;;0.80;;
9422;SDS011;4750;49.506;10.400;2022-09-16T16:14:08;2.67;;;0.90;;
9422;SDS011;4750;49.506;10.400;2022-09-16T16:16:52;0.87;;;0.50;;
9422;SDS011;4750;49.506;10.400;2022-09-16T16:19:38;1.23;;;0.70;;
9422;SDS011;4750;49.506;10.400;2022-09-16T16:22:24;1.70;;;0.80;;
9422;SDS011;4750;49.506;10.400;2022-09-16T16:25:08;1.90;;;1.00;;
9422;SDS011;4750;49.506;10.400;2022-09-16T16:27:52;0.80;;;0.73;;
9422;SDS011;4750;49.506;10.400;2022-09-16T16:30:36;2.20;;;0.80;;
9422;SDS011;4750;49.506;10.400;2022-09-16T16:33:23;2.60;;;0.90;;
9422;SDS011;4750;49.506;10.400;2022-09-16T16:36:07;1.30;;;0.90;;
9422;SDS011;4750;49.506;10.400;2022-09-16T16:38:51;2.87;;;1.17;;
9422;SDS011;4750;49.506;10.400;2022-09-16T16:41:35;0.63;;;0.53;;
9422;SDS011;4750;49.506;10.400;2022-09-16T16:44:19;1.07;;;0.93;;
9422;SDS011;4750;49.506;10.400;2022-09-16T16:47:05;1.63;;;0.80;;
9422;SDS011;4750;49.506;10.400;2022-09-16T16:49:51;2.00;;;1.00;;
9422;SDS011;4750;49.506;10.400;2022-09-16T16:52:35;0.83;;;0.77;;
9422;SDS011;4750;49.506;10.400;2022-09-16T16:55:19;7.87;;;2.10;;
9422;SDS011;4750;49.506;10.400;2022-09-16T16:58:03;2.23;;;1.40;;
9422;SDS011;4750;49.506;10.400;2022-09-16T17:00:47;2.60;;;1.30;;
9422;SDS011;4750;49.506;10.400;2022-09-16T17:03:30;2.43;;;0.90;;
9422;SDS011;4750;49.506;10.400;2022-09-16T17:06:15;2.03;;;1.03;;
9422;SDS011;4750;49.506;10.400;2022-09-16T17:09:00;3.20;;;1.00;;
9422;SDS011;4750;49.506;10.400;2022-09-16T17:11:48;0.60;;;0.60;;
9422;SDS011;4750;49.506;10.400;2022-09-16T17:14:33;1.50;;;1.17;;
9422;SDS011;4750;49.506;10.400;2022-09-16T17:17:17;1.70;;;1.07;;
9422;SDS011;4750;49.506;10.400;2022-09-16T17:20:01;1.77;;;1.07;;
9422;SDS011;4750;49.506;10.400;2022-09-16T17:22:46;3.10;;;1.00;;
9422;SDS011;4750;49.506;10.400;2022-09-16T17:25:32;4.80;;;0.90;;
9422;SDS011;4750;49.506;10.400;2022-09-16T17:28:16;1.80;;;1.00;;
9422;SDS011;4750;49.506;10.400;2022-09-16T17:31:00;2.57;;;1.07;;
9422;SDS011;4750;49.506;10.400;2022-09-16T17:33:44;2.27;;;0.90;;
9422;SDS011;4750;49.506;10.400;2022-09-16T17:36:29;1.97;;;1.00;;
9422;SDS011;4750;49.506;10.400;2022-09-16T17:39:18;0.83;;;0.70;;
9422;SDS011;4750;49.506;10.400;2022-09-16T17:42:03;0.80;;;0.80;;
9422;SDS011;4750;49.506;10.400;2022-09-16T17:44:47;0.90;;;0.90;;
9422;SDS011;4750;49.506;10.400;2022-09-16T17:47:34;2.17;;;1.80;;
9422;SDS011;4750;49.506;10.400;2022-09-16T17:50:18;0.90;;;0.80;;
9422;SDS011;4750;49.506;10.400;2022-09-16T17:53:02;1.30;;;0.97;;
9422;SDS011;4750;49.506;10.400;2022-09-16T17:55:46;1.17;;;0.67;;
9422;SDS011;4750;49.506;10.400;2022-09-16T17:58:31;1.60;;;0.70;;
9422;SDS011;4750;49.506;10.400;2022-09-16T18:01:17;0.63;;;0.63;;
9422;SDS011;4750;49.506;10.400;2022-09-16T18:04:03;0.80;;;0.80;;
9422;SDS011;4750;49.506;10.400;2022-09-16T18:06:47;0.87;;;0.60;;
9422;SDS011;4750;49.506;10.400;2022-09-16T18:09:31;1.00;;;0.80;;
9422;SDS011;4750;49.506;10.400;2022-09-16T18:12:15;1.13;;;0.90;;
9422;SDS011;4750;49.506;10.400;2022-09-16T18:14:59;2.20;;;0.87;;
9422;SDS011;4750;49.506;10.400;2022-09-16T18:17:43;1.27;;;0.60;;
9422;SDS011;4750;49.506;10.400;2022-09-16T18:20:28;2.53;;;1.00;;
9422;SDS011;4750;49.506;10.400;2022-09-16T18:23:12;0.80;;;0.80;;
9422;SDS011;4750;49.506;10.400;2022-09-16T18:25:56;2.43;;;0.97;;
9422;SDS011;4750;49.506;10.400;2022-09-16T18:28:46;1.10;;;1.03;;
9422;SDS011;4750;49.506;10.400;2022-09-16T18:31:32;0.77;;;0.77;;
9422;SDS011;4750;49.506;10.400;2022-09-16T18:34:17;1.07;;;0.80;;
9422;SDS011;4750;49.506;10.400;2022-09-16T18:37:01;1.73;;;1.20;;
9422;SDS011;4750;49.506;10.400;2022-09-16T18:39:45;0.87;;;0.57;;
9422;SDS011;4750;49.506;10.400;2022-09-16T18:42:29;1.30;;;0.70;;
9422;SDS011;4750;49.506;10.400;2022-09-16T18:45:14;2.87;;;1.60;;
9422;SDS011;4750;49.506;10.400;2022-09-16T18:47:57;1.10;;;0.70;;
9422;SDS011;4750;49.506;10.400;2022-09-16T18:50:41;1.97;;;0.87;;
9422;SDS011;4750;49.506;10.400;2022-09-16T18:53:25;0.73;;;0.73;;
9422;SDS011;4750;49.506;10.400;2022-09-16T18:56:10;2.90;;;0.80;;
9422;SDS011;4750;49.506;10.400;2022-09-16T18:59:03;1.87;;;0.80;;
9422;SDS011;4750;49.506;10.400;2022-09-16T19:01:47;1.13;;;0.90;;
9422;SDS011;4750;49.506;10.400;2022-09-16T19:04:35;1.03;;;0.90;;
9422;SDS011;4750;49.506;10.400;2022-09-16T19:07:21;1.47;;;0.90;;
9422;SDS011;4750;49.506;10.400;2022-09-16T19:10:05;0.87;;;0.83;;
9422;SDS011;4750;49.506;10.400;2022-09-16T19:12:49;1.40;;;1.10;;
9422;SDS011;4750;49.506;10.400;2022-09-16T19:15:35;2.77;;;1.00;;
9422;SDS011;4750;49.506;10.400;2022-09-16T19:18:19;1.63;;;1.03;;
9422;SDS011;4750;49.506;10.400;2022-09-16T19:21:03;1.90;;;0.90;;
9422;SDS011;4750;49.506;10.400;2022-09-16T19:23:51;1.00;;;1.00;;
9422;SDS011;4750;49.506;10.400;2022-09-16T19:26:41;1.00;;;0.90;;
9422;SDS011;4750;49.506;10.400;2022-09-16T19:29:26;1.10;;;1.00;;
9422;SDS011;4750;49.506;10.400;2022-09-16T19:32:10;0.83;;;0.80;;
9422;SDS011;4750;49.506;10.400;2022-09-16T19:34:54;1.13;;;0.77;;
9422;SDS011;4750;49.506;10.400;2022-09-16T19:37:38;1.07;;;0.60;;
9422;SDS011;4750;49.506;10.400;2022-09-16T19:40:22;4.03;;;1.20;;
9422;SDS011;4750;49.506;10.400;2022-09-16T19:43:06;0.90;;;0.90;;
9422;SDS011;4750;49.506;10.400;2022-09-16T19:45:50;2.50;;;1.00;;
9422;SDS011;4750;49.506;10.400;2022-09-16T19:48:35;1.80;;;0.87;;
9422;SDS011;4750;49.506;10.400;2022-09-16T19:51:21;1.53;;;0.90;;
9422;SDS011;4750;49.506;10.400;2022-09-16T19:54:06;1.17;;;0.90;;
9422;SDS011;4750;49.506;10.400;2022-09-16T19:56:50;1.13;;;1.10;;
9422;SDS011;4750;49.506;10.400;2022-09-16T19:59:34;2.03;;;1.20;;
9422;SDS011;4750;49.506;10.400;2022-09-16T20:02:18;2.77;;;1.23;;
9422;SDS011;4750;49.506;10.400;2022-09-16T20:05:02;1.63;;;1.00;;
9422;SDS011;4750;49.506;10.400;2022-09-16T20:07:47;1.10;;;1.00;;
9422;SDS011;4750;49.506;10.400;2022-09-16T20:10:31;1.20;;;0.93;;
9422;SDS011;4750;49.506;10.400;2022-09-16T20:13:15;1.60;;;1.00;;